EJU5WJ LDZA-LDDU
Flight info
| Callsign | EJU5WJ |
|---|---|
| Flight time | 0h 49m |
| Altitude | 33000 |
| Route | NIVES1W NIVES DCT UNIPA DCT SIPAL SIPAL1L |
| Aircraft | A320/M-SDE3FGHIRWY/LB1 |
Departure
| Time | 2026-04-27 14:32 |
|---|---|
| Airport | Zagreb Franjo Tuđman International Airport (LDZA) |
Arrival
| Time | 2026-04-27 15:21 |
|---|---|
| Airport | Dubrovnik Ruđer Bošković Airport (LDDU) |
| Time | Latitude | Longitude | Altitude | Speed | Heading |
|---|---|---|---|---|---|
| 2026-04-27 13:51 | 45.74272 | 16.07949 | 363 ft | 0 kts | 137° |
| 2026-04-27 14:22 | 45.74276 | 16.07944 | 367 ft | 2 kts | 137° |
| 2026-04-27 14:23 | 45.74291 | 16.07925 | 363 ft | 3 kts | 137° |
| 2026-04-27 14:23 | 45.74306 | 16.07906 | 362 ft | 3 kts | 141° |
| 2026-04-27 14:23 | 45.74322 | 16.07889 | 361 ft | 3 kts | 159° |
| 2026-04-27 14:23 | 45.74337 | 16.07884 | 362 ft | 2 kts | 213° |
| 2026-04-27 14:24 | 45.74341 | 16.07887 | 361 ft | 3 kts | 225° |
| 2026-04-27 14:27 | 45.74319 | 16.07856 | 360 ft | 14 kts | 225° |
| 2026-04-27 14:27 | 45.74232 | 16.07726 | 362 ft | 19 kts | 226° |
| 2026-04-27 14:27 | 45.74121 | 16.07557 | 358 ft | 26 kts | 226° |
| 2026-04-27 14:27 | 45.74065 | 16.07414 | 355 ft | 15 kts | 291° |
| 2026-04-27 14:28 | 45.74154 | 16.07287 | 357 ft | 19 kts | 316° |
| 2026-04-27 14:28 | 45.74213 | 16.07157 | 360 ft | 14 kts | 256° |
| 2026-04-27 14:28 | 45.74141 | 16.07037 | 360 ft | 17 kts | 226° |
| 2026-04-27 14:28 | 45.74043 | 16.06889 | 357 ft | 23 kts | 227° |
| 2026-04-27 14:29 | 45.73930 | 16.06718 | 357 ft | 25 kts | 227° |
| 2026-04-27 14:29 | 45.73811 | 16.06538 | 366 ft | 24 kts | 226° |
| 2026-04-27 14:29 | 45.73742 | 16.06404 | 363 ft | 8 kts | 286° |
| 2026-04-27 14:29 | 45.73770 | 16.06354 | 361 ft | 5 kts | 314° |
| 2026-04-27 14:30 | 45.73789 | 16.06326 | 362 ft | 2 kts | 314° |
| 2026-04-27 14:30 | 45.73797 | 16.06315 | 362 ft | 3 kts | 316° |
| 2026-04-27 14:30 | 45.73842 | 16.06260 | 364 ft | 9 kts | 318° |
| 2026-04-27 14:30 | 45.73890 | 16.06264 | 364 ft | 7 kts | 46° |
| 2026-04-27 14:31 | 45.73903 | 16.06285 | 369 ft | 5 kts | 47° |
| 2026-04-27 14:31 | 45.74065 | 16.06530 | 360 ft | 73 kts | 46° |
| 2026-04-27 14:31 | 45.74572 | 16.07301 | 361 ft | 137 kts | 47° |
| 2026-04-27 14:31 | 45.75307 | 16.08412 | 697 ft | 157 kts | 51° |
| 2026-04-27 14:32 | 45.75802 | 16.09783 | 1356 ft | 155 kts | 74° |
| 2026-04-27 14:32 | 45.76031 | 16.11333 | 1876 ft | 168 kts | 84° |
| 2026-04-27 14:32 | 45.76023 | 16.13107 | 2129 ft | 190 kts | 97° |
| 2026-04-27 14:32 | 45.75728 | 16.15068 | 2433 ft | 212 kts | 102° |
| 2026-04-27 14:33 | 45.75389 | 16.17227 | 2858 ft | 230 kts | 102° |
| 2026-04-27 14:33 | 45.75043 | 16.19490 | 3501 ft | 234 kts | 102° |
| 2026-04-27 14:33 | 45.74696 | 16.21791 | 4080 ft | 240 kts | 102° |
| 2026-04-27 14:33 | 45.74339 | 16.24160 | 4619 ft | 248 kts | 102° |
| 2026-04-27 14:34 | 45.73970 | 16.26610 | 5186 ft | 255 kts | 102° |
| 2026-04-27 14:34 | 45.73287 | 16.29052 | 5413 ft | 274 kts | 127° |
| 2026-04-27 14:34 | 45.71843 | 16.30848 | 5867 ft | 280 kts | 156° |
| 2026-04-27 14:34 | 45.69970 | 16.31454 | 6412 ft | 277 kts | 186° |
| 2026-04-27 14:35 | 45.68063 | 16.31053 | 6966 ft | 278 kts | 193° |
| 2026-04-27 14:35 | 45.66139 | 16.30704 | 7492 ft | 282 kts | 184° |
| 2026-04-27 14:35 | 45.64169 | 16.30858 | 8040 ft | 285 kts | 179° |
| 2026-04-27 14:35 | 45.62191 | 16.31076 | 8574 ft | 286 kts | 178° |
| 2026-04-27 14:36 | 45.60176 | 16.31300 | 9114 ft | 287 kts | 178° |
| 2026-04-27 14:36 | 45.58204 | 16.31523 | 9628 ft | 289 kts | 178° |
| 2026-04-27 14:36 | 45.56187 | 16.31753 | 10091 ft | 295 kts | 178° |
| 2026-04-27 14:36 | 45.54064 | 16.31990 | 10199 ft | 309 kts | 178° |
| 2026-04-27 14:37 | 45.51879 | 16.32230 | 10322 ft | 320 kts | 178° |
| 2026-04-27 14:37 | 45.49664 | 16.32474 | 10511 ft | 326 kts | 178° |
| 2026-04-27 14:37 | 45.47363 | 16.32730 | 10782 ft | 328 kts | 178° |
| 2026-04-27 14:37 | 45.45110 | 16.32982 | 11046 ft | 330 kts | 178° |
| 2026-04-27 14:38 | 45.42784 | 16.33244 | 11326 ft | 332 kts | 178° |
| 2026-04-27 14:38 | 45.40477 | 16.33505 | 11582 ft | 333 kts | 178° |
| 2026-04-27 14:38 | 45.38190 | 16.33764 | 11817 ft | 335 kts | 178° |
| 2026-04-27 14:38 | 45.35833 | 16.34029 | 12048 ft | 336 kts | 178° |
| 2026-04-27 14:39 | 45.33496 | 16.34289 | 12299 ft | 338 kts | 178° |
| 2026-04-27 14:39 | 45.31148 | 16.34547 | 12550 ft | 339 kts | 178° |
| 2026-04-27 14:39 | 45.28792 | 16.34807 | 12785 ft | 340 kts | 178° |
| 2026-04-27 14:39 | 45.26430 | 16.35067 | 13011 ft | 342 kts | 178° |
| 2026-04-27 14:40 | 45.24054 | 16.35329 | 13223 ft | 343 kts | 178° |
| 2026-04-27 14:40 | 45.21670 | 16.35590 | 13439 ft | 344 kts | 178° |
| 2026-04-27 14:40 | 45.19275 | 16.35850 | 13640 ft | 346 kts | 178° |
| 2026-04-27 14:40 | 45.16871 | 16.36110 | 13847 ft | 347 kts | 178° |
| 2026-04-27 14:41 | 45.14460 | 16.36371 | 14049 ft | 348 kts | 178° |
| 2026-04-27 14:41 | 45.12043 | 16.36633 | 14208 ft | 349 kts | 178° |
| 2026-04-27 14:41 | 45.09617 | 16.36897 | 14386 ft | 350 kts | 178° |
| 2026-04-27 14:41 | 45.07181 | 16.37163 | 14541 ft | 351 kts | 178° |
| 2026-04-27 14:42 | 45.04738 | 16.37433 | 14713 ft | 353 kts | 178° |
| 2026-04-27 14:42 | 45.02289 | 16.37702 | 14881 ft | 354 kts | 177° |
| 2026-04-27 14:42 | 44.99832 | 16.37971 | 15030 ft | 355 kts | 178° |
| 2026-04-27 14:42 | 44.97369 | 16.38238 | 15158 ft | 356 kts | 178° |
| 2026-04-27 14:43 | 44.94898 | 16.38505 | 15313 ft | 357 kts | 178° |
| 2026-04-27 14:43 | 44.92421 | 16.38769 | 15459 ft | 358 kts | 178° |
| 2026-04-27 14:43 | 44.89937 | 16.39031 | 15604 ft | 358 kts | 178° |
| 2026-04-27 14:43 | 44.87450 | 16.39294 | 15726 ft | 359 kts | 178° |
| 2026-04-27 14:44 | 44.84955 | 16.39559 | 15853 ft | 360 kts | 178° |
| 2026-04-27 14:44 | 44.82455 | 16.39824 | 15976 ft | 361 kts | 178° |
| 2026-04-27 14:44 | 44.79954 | 16.40093 | 16100 ft | 361 kts | 178° |
| 2026-04-27 14:44 | 44.77447 | 16.40365 | 16278 ft | 359 kts | 177° |
| 2026-04-27 14:45 | 44.74984 | 16.40634 | 16737 ft | 351 kts | 178° |
| 2026-04-27 14:45 | 44.72579 | 16.40897 | 17197 ft | 343 kts | 178° |
| 2026-04-27 14:45 | 44.70221 | 16.41151 | 17662 ft | 336 kts | 178° |
| 2026-04-27 14:45 | 44.67907 | 16.41398 | 18141 ft | 330 kts | 178° |
| 2026-04-27 14:46 | 44.65636 | 16.41639 | 18596 ft | 326 kts | 178° |
| 2026-04-27 14:46 | 44.63391 | 16.41877 | 19015 ft | 321 kts | 178° |
| 2026-04-27 14:46 | 44.61180 | 16.42114 | 19439 ft | 317 kts | 178° |
| 2026-04-27 14:46 | 44.58993 | 16.42349 | 19873 ft | 312 kts | 178° |
| 2026-04-27 14:47 | 44.56837 | 16.42578 | 20290 ft | 310 kts | 178° |
| 2026-04-27 14:47 | 44.54696 | 16.42806 | 20681 ft | 307 kts | 178° |
| 2026-04-27 14:47 | 44.52573 | 16.43034 | 21076 ft | 305 kts | 178° |
| 2026-04-27 14:47 | 44.50462 | 16.43261 | 21454 ft | 303 kts | 178° |
| 2026-04-27 14:48 | 44.48363 | 16.43486 | 21841 ft | 302 kts | 178° |
| 2026-04-27 14:48 | 44.44197 | 16.43925 | 22621 ft | 298 kts | 178° |
| 2026-04-27 14:48 | 44.42141 | 16.44140 | 23032 ft | 295 kts | 178° |
| 2026-04-27 14:49 | 44.40087 | 16.44358 | 23293 ft | 299 kts | 178° |
| 2026-04-27 14:49 | 44.37989 | 16.44581 | 23429 ft | 306 kts | 178° |
| 2026-04-27 14:49 | 44.35844 | 16.44812 | 23568 ft | 312 kts | 178° |
| 2026-04-27 14:49 | 44.33660 | 16.45044 | 23698 ft | 318 kts | 178° |
| 2026-04-27 14:50 | 44.31436 | 16.45279 | 23816 ft | 323 kts | 178° |
| 2026-04-27 14:50 | 44.29177 | 16.45522 | 23929 ft | 328 kts | 175° |
| 2026-04-27 14:50 | 44.26950 | 16.46315 | 24049 ft | 335 kts | 159° |
| 2026-04-27 14:50 | 44.24736 | 16.47548 | 24171 ft | 351 kts | 159° |
| 2026-04-27 14:51 | 44.22419 | 16.48856 | 24292 ft | 367 kts | 159° |
| 2026-04-27 14:51 | 44.20001 | 16.50225 | 24402 ft | 384 kts | 158° |
| 2026-04-27 14:51 | 44.17476 | 16.51653 | 24533 ft | 399 kts | 158° |
| 2026-04-27 14:51 | 44.15714 | 16.52649 | 24611 ft | 409 kts | 158° |
| 2026-04-27 14:52 | 44.12138 | 16.54668 | 24769 ft | 428 kts | 158° |
| 2026-04-27 14:52 | 44.09334 | 16.56243 | 24890 ft | 440 kts | 158° |
| 2026-04-27 14:52 | 44.06471 | 16.57852 | 25011 ft | 446 kts | 158° |
| 2026-04-27 14:52 | 44.03581 | 16.59468 | 25238 ft | 450 kts | 159° |
| 2026-04-27 14:53 | 44.00659 | 16.61066 | 25632 ft | 453 kts | 159° |
| 2026-04-27 14:53 | 43.97715 | 16.62653 | 26026 ft | 455 kts | 159° |
| 2026-04-27 14:53 | 43.94752 | 16.64239 | 26420 ft | 458 kts | 159° |
| 2026-04-27 14:53 | 43.91771 | 16.65830 | 26803 ft | 460 kts | 159° |
| 2026-04-27 14:54 | 43.88773 | 16.67431 | 27051 ft | 462 kts | 159° |
| 2026-04-27 14:54 | 43.85776 | 16.69039 | 27105 ft | 462 kts | 159° |
| 2026-04-27 14:54 | 43.82778 | 16.70651 | 27104 ft | 462 kts | 159° |
| 2026-04-27 14:54 | 43.79785 | 16.72260 | 27105 ft | 461 kts | 159° |
| 2026-04-27 14:55 | 43.76796 | 16.73869 | 27104 ft | 461 kts | 159° |
| 2026-04-27 14:55 | 43.73808 | 16.75482 | 27110 ft | 461 kts | 159° |
| 2026-04-27 14:55 | 43.70820 | 16.77092 | 26598 ft | 460 kts | 159° |
| 2026-04-27 14:55 | 43.67839 | 16.78693 | 25835 ft | 458 kts | 159° |
| 2026-04-27 14:56 | 43.64879 | 16.80277 | 25156 ft | 454 kts | 160° |
| 2026-04-27 14:56 | 43.61945 | 16.81839 | 24515 ft | 450 kts | 160° |
| 2026-04-27 14:56 | 43.59036 | 16.83383 | 23894 ft | 446 kts | 160° |
| 2026-04-27 14:56 | 43.56155 | 16.84916 | 23223 ft | 442 kts | 160° |
| 2026-04-27 14:57 | 43.53301 | 16.86436 | 22565 ft | 438 kts | 160° |
| 2026-04-27 14:57 | 43.50474 | 16.87938 | 21941 ft | 433 kts | 160° |
| 2026-04-27 14:57 | 43.47678 | 16.89420 | 21493 ft | 429 kts | 160° |
| 2026-04-27 14:57 | 43.44891 | 16.90897 | 21238 ft | 429 kts | 160° |
| 2026-04-27 14:58 | 43.42110 | 16.92371 | 20984 ft | 427 kts | 160° |
| 2026-04-27 14:58 | 43.39343 | 16.93835 | 20734 ft | 425 kts | 160° |
| 2026-04-27 14:58 | 43.36590 | 16.95290 | 20483 ft | 423 kts | 160° |
| 2026-04-27 14:58 | 43.33847 | 16.96737 | 20237 ft | 421 kts | 160° |
| 2026-04-27 14:59 | 43.32001 | 16.97709 | 20066 ft | 420 kts | 160° |
| 2026-04-27 14:59 | 43.29279 | 16.99141 | 19820 ft | 418 kts | 160° |
| 2026-04-27 14:59 | 43.26571 | 17.00565 | 19574 ft | 416 kts | 160° |
| 2026-04-27 14:59 | 43.23873 | 17.01987 | 19325 ft | 414 kts | 160° |
| 2026-04-27 15:00 | 43.21189 | 17.03400 | 19086 ft | 412 kts | 160° |
| 2026-04-27 15:00 | 43.18522 | 17.04811 | 18758 ft | 408 kts | 159° |
| 2026-04-27 15:00 | 43.15973 | 17.06508 | 18396 ft | 408 kts | 151° |
| 2026-04-27 15:00 | 43.13616 | 17.08640 | 17996 ft | 406 kts | 143° |
| 2026-04-27 15:01 | 43.11487 | 17.11172 | 17597 ft | 404 kts | 135° |
| 2026-04-27 15:01 | 43.09622 | 17.14022 | 17201 ft | 401 kts | 129° |
| 2026-04-27 15:01 | 43.07850 | 17.16952 | 16814 ft | 399 kts | 129° |
| 2026-04-27 15:01 | 43.06085 | 17.19863 | 16428 ft | 396 kts | 129° |
| 2026-04-27 15:02 | 43.04332 | 17.22750 | 16045 ft | 392 kts | 129° |
| 2026-04-27 15:02 | 43.02622 | 17.25563 | 15894 ft | 378 kts | 129° |
| 2026-04-27 15:02 | 43.00966 | 17.28280 | 15764 ft | 365 kts | 130° |
| 2026-04-27 15:02 | 42.99366 | 17.30898 | 15612 ft | 354 kts | 130° |
| 2026-04-27 15:03 | 42.97804 | 17.33458 | 15311 ft | 348 kts | 129° |
| 2026-04-27 15:03 | 42.96261 | 17.35989 | 14945 ft | 346 kts | 129° |
| 2026-04-27 15:03 | 42.94726 | 17.38499 | 14588 ft | 343 kts | 130° |
| 2026-04-27 15:03 | 42.93200 | 17.40995 | 14222 ft | 341 kts | 129° |
| 2026-04-27 15:04 | 42.91685 | 17.43472 | 13819 ft | 339 kts | 129° |
| 2026-04-27 15:04 | 42.90176 | 17.45938 | 13402 ft | 337 kts | 129° |
| 2026-04-27 15:04 | 42.88678 | 17.48377 | 12986 ft | 334 kts | 130° |
| 2026-04-27 15:04 | 42.87188 | 17.50798 | 12595 ft | 332 kts | 130° |
| 2026-04-27 15:05 | 42.85712 | 17.53198 | 12188 ft | 329 kts | 130° |
| 2026-04-27 15:05 | 42.84248 | 17.55579 | 11809 ft | 327 kts | 129° |
| 2026-04-27 15:05 | 42.82796 | 17.57942 | 11412 ft | 324 kts | 129° |
| 2026-04-27 15:05 | 42.81357 | 17.60288 | 11014 ft | 321 kts | 129° |
| 2026-04-27 15:06 | 42.79927 | 17.62612 | 10608 ft | 318 kts | 129° |
| 2026-04-27 15:06 | 42.78509 | 17.64913 | 10223 ft | 316 kts | 129° |
| 2026-04-27 15:06 | 42.77110 | 17.67184 | 9823 ft | 313 kts | 129° |
| 2026-04-27 15:06 | 42.75719 | 17.69436 | 9535 ft | 303 kts | 129° |
| 2026-04-27 15:07 | 42.74399 | 17.71569 | 9533 ft | 291 kts | 129° |
| 2026-04-27 15:07 | 42.73102 | 17.73665 | 9432 ft | 286 kts | 129° |
| 2026-04-27 15:07 | 42.71831 | 17.75721 | 9068 ft | 283 kts | 129° |
| 2026-04-27 15:07 | 42.70565 | 17.77766 | 8762 ft | 282 kts | 129° |
| 2026-04-27 15:08 | 42.69301 | 17.79805 | 8531 ft | 282 kts | 129° |
| 2026-04-27 15:08 | 42.68038 | 17.81840 | 8305 ft | 281 kts | 129° |
| 2026-04-27 15:08 | 42.66778 | 17.83867 | 8080 ft | 280 kts | 129° |
| 2026-04-27 15:08 | 42.65523 | 17.85890 | 7860 ft | 280 kts | 129° |
| 2026-04-27 15:09 | 42.64272 | 17.87906 | 7626 ft | 279 kts | 129° |
| 2026-04-27 15:09 | 42.63022 | 17.89916 | 7408 ft | 278 kts | 129° |
| 2026-04-27 15:09 | 42.61777 | 17.91920 | 7189 ft | 277 kts | 129° |
| 2026-04-27 15:09 | 42.60535 | 17.93919 | 6967 ft | 277 kts | 129° |
| 2026-04-27 15:10 | 42.59293 | 17.95913 | 6746 ft | 276 kts | 130° |
| 2026-04-27 15:10 | 42.58058 | 17.97897 | 6505 ft | 275 kts | 130° |
| 2026-04-27 15:10 | 42.56823 | 17.99877 | 6249 ft | 274 kts | 130° |
| 2026-04-27 15:10 | 42.55587 | 18.01850 | 5995 ft | 274 kts | 130° |
| 2026-04-27 15:11 | 42.54356 | 18.03816 | 5743 ft | 274 kts | 130° |
| 2026-04-27 15:11 | 42.53123 | 18.05786 | 5492 ft | 274 kts | 130° |
| 2026-04-27 15:11 | 42.51892 | 18.07748 | 5245 ft | 273 kts | 130° |
| 2026-04-27 15:11 | 42.50661 | 18.09710 | 4999 ft | 273 kts | 130° |
| 2026-04-27 15:12 | 42.49432 | 18.11665 | 4749 ft | 272 kts | 130° |
| 2026-04-27 15:12 | 42.48289 | 18.13698 | 4496 ft | 271 kts | 121° |
| 2026-04-27 15:12 | 42.47390 | 18.15939 | 4276 ft | 270 kts | 117° |
| 2026-04-27 15:12 | 42.46505 | 18.18183 | 4122 ft | 270 kts | 117° |
| 2026-04-27 15:13 | 42.45619 | 18.20428 | 3966 ft | 270 kts | 117° |
| 2026-04-27 15:13 | 42.44736 | 18.22668 | 3820 ft | 270 kts | 117° |
| 2026-04-27 15:13 | 42.43852 | 18.24906 | 3684 ft | 269 kts | 117° |
| 2026-04-27 15:13 | 42.42976 | 18.27118 | 3529 ft | 261 kts | 117° |
| 2026-04-27 15:14 | 42.42135 | 18.29231 | 3400 ft | 249 kts | 117° |
| 2026-04-27 15:14 | 42.41336 | 18.31242 | 3290 ft | 237 kts | 117° |
| 2026-04-27 15:14 | 42.40581 | 18.33142 | 3279 ft | 222 kts | 117° |
| 2026-04-27 15:14 | 42.39871 | 18.34921 | 3280 ft | 210 kts | 117° |
| 2026-04-27 15:15 | 42.39211 | 18.36613 | 3314 ft | 195 kts | 112° |
| 2026-04-27 15:15 | 42.38994 | 18.38309 | 3285 ft | 174 kts | 83° |
| 2026-04-27 15:15 | 42.39302 | 18.39741 | 3275 ft | 149 kts | 59° |
| 2026-04-27 15:15 | 42.39928 | 18.40795 | 3257 ft | 141 kts | 36° |
| 2026-04-27 15:16 | 42.40759 | 18.41469 | 3275 ft | 138 kts | 17° |
| 2026-04-27 15:16 | 42.41694 | 18.41693 | 3278 ft | 136 kts | 357° |
| 2026-04-27 15:16 | 42.42606 | 18.41450 | 3172 ft | 132 kts | 336° |
| 2026-04-27 15:16 | 42.43394 | 18.40810 | 2882 ft | 133 kts | 323° |
| 2026-04-27 15:17 | 42.44141 | 18.40078 | 2722 ft | 133 kts | 323° |
| 2026-04-27 15:17 | 42.44896 | 18.39344 | 2685 ft | 134 kts | 323° |
| 2026-04-27 15:17 | 42.45657 | 18.38608 | 2686 ft | 135 kts | 323° |
| 2026-04-27 15:17 | 42.46420 | 18.37866 | 2683 ft | 135 kts | 323° |
| 2026-04-27 15:18 | 42.47191 | 18.37115 | 2553 ft | 136 kts | 323° |
| 2026-04-27 15:18 | 42.47956 | 18.36368 | 2371 ft | 136 kts | 323° |
| 2026-04-27 15:18 | 42.48724 | 18.35619 | 2192 ft | 135 kts | 323° |
| 2026-04-27 15:18 | 42.49487 | 18.34875 | 2019 ft | 135 kts | 323° |
| 2026-04-27 15:19 | 42.50250 | 18.34132 | 1842 ft | 135 kts | 321° |
| 2026-04-27 15:19 | 42.51053 | 18.33480 | 1784 ft | 136 kts | 335° |
| 2026-04-27 15:19 | 42.51941 | 18.33018 | 1553 ft | 135 kts | 336° |
| 2026-04-27 15:19 | 42.52823 | 18.32569 | 1387 ft | 134 kts | 338° |
| 2026-04-27 15:20 | 42.53684 | 18.32116 | 1145 ft | 133 kts | 326° |
| 2026-04-27 15:20 | 42.54354 | 18.31309 | 985 ft | 127 kts | 303° |
| 2026-04-27 15:20 | 42.54775 | 18.30261 | 843 ft | 127 kts | 295° |
| 2026-04-27 15:20 | 42.55198 | 18.29195 | 686 ft | 129 kts | 296° |
| 2026-04-27 15:21 | 42.55624 | 18.28120 | 540 ft | 129 kts | 299° |
| 2026-04-27 15:21 | 42.56026 | 18.27112 | 507 ft | 108 kts | 298° |
| 2026-04-27 15:21 | 42.56302 | 18.26412 | 512 ft | 58 kts | 298° |
| 2026-04-27 15:21 | 42.56341 | 18.26229 | 515 ft | 2 kts | 232° |
| 2026-04-27 15:22 | 42.56312 | 18.26206 | 514 ft | 8 kts | 194° |
| 2026-04-27 15:22 | 42.56259 | 18.26230 | 514 ft | 8 kts | 153° |
| 2026-04-27 15:22 | 42.56239 | 18.26245 | 513 ft | 1 kts | 152° |
| 2026-04-27 15:22 | 42.56230 | 18.26251 | 513 ft | 2 kts | 153° |
| 2026-04-27 15:23 | 42.56205 | 18.26268 | 513 ft | 5 kts | 153° |
| 2026-04-27 15:23 | 42.56172 | 18.26291 | 512 ft | 5 kts | 153° |
| 2026-04-27 15:23 | 42.56138 | 18.26314 | 512 ft | 5 kts | 154° |
| 2026-04-27 15:23 | 42.56086 | 18.26301 | 512 ft | 0 kts | 208° |